createdAt,value
2023-04-02T00:00:18.368Z,28.95
2023-04-02T00:01:21.405Z,23.25
2023-04-02T00:01:53.670Z,22.73
2023-04-02T00:02:30.730Z,26.63
2023-04-02T00:03:08.781Z,28.25
2023-04-02T00:04:11.016Z,34.97
2023-04-02T00:04:45.804Z,23.35
2023-04-02T00:05:53.042Z,20.52
2023-04-02T00:06:45.027Z,21.33
2023-04-02T00:07:31.078Z,23.58
2023-04-02T00:08:10.289Z,28.83
2023-04-02T00:08:45.142Z,21.70
2023-04-02T00:09:32.771Z,28.58
2023-04-02T00:10:28.039Z,30.10
2023-04-02T00:11:01.500Z,24.30
2023-04-02T00:11:36.178Z,29.05
2023-04-02T00:12:20.858Z,28.77
2023-04-02T00:13:05.850Z,33.97
2023-04-02T00:13:43.875Z,23.40
2023-04-02T00:14:18.903Z,26.50
2023-04-02T00:14:54.610Z,26.85
2023-04-02T00:15:29.755Z,23.65
2023-04-02T00:16:04.450Z,42.97
2023-04-02T00:16:39.431Z,27.27
2023-04-02T00:17:11.661Z,33.60
2023-04-02T00:17:43.879Z,22.92
2023-04-02T00:18:20.375Z,29.83
2023-04-02T00:18:55.801Z,32.28
2023-04-02T00:19:36.007Z,51.35
2023-04-02T00:20:20.261Z,43.20
2023-04-02T00:20:59.687Z,32.55
2023-04-02T00:21:34.854Z,28.33
2023-04-02T00:22:19.501Z,37.55
2023-04-02T00:22:52.088Z,29.15
2023-04-02T00:23:24.834Z,26.15
2023-04-02T00:24:03.670Z,26.75
2023-04-02T00:24:38.727Z,26.40
2023-04-02T00:25:14.294Z,35.45
2023-04-02T00:25:49.286Z,41.65
2023-04-02T00:26:23.749Z,42.95
2023-04-02T00:26:56.294Z,31.48
2023-04-02T00:27:33.582Z,27.92
2023-04-02T00:28:06.015Z,37.03
2023-04-02T00:28:38.227Z,38.17
2023-04-02T00:29:15.564Z,25.52
2023-04-02T00:29:49.110Z,38.28
2023-04-02T00:30:24.623Z,24.15
2023-04-02T00:31:00.200Z,34.22
2023-04-02T00:31:34.208Z,23.75
2023-04-02T00:32:14.970Z,25.63
2023-04-02T00:32:48.126Z,29.15
2023-04-02T00:33:22.958Z,33.80
2023-04-02T00:33:58.064Z,23.08
2023-04-02T00:34:34.038Z,21.95
2023-04-02T00:35:12.695Z,29.85
2023-04-02T00:35:47.605Z,42.17
2023-04-02T00:36:22.213Z,25.45
2023-04-02T00:36:55.162Z,43.30
2023-04-02T00:37:39.354Z,21.98
2023-04-02T00:38:20.924Z,26.00
2023-04-02T00:38:55.508Z,39.47
2023-04-02T00:39:33.266Z,40.80
2023-04-02T00:40:10.149Z,31.60
2023-04-02T00:40:42.937Z,19.40
2023-04-02T00:41:22.930Z,25.77
2023-04-02T00:42:05.210Z,24.10
2023-04-02T00:42:40.503Z,15.88
2023-04-02T00:43:18.975Z,29.50
2023-04-02T00:43:52.840Z,17.52
2023-04-02T00:44:29.506Z,19.25
2023-04-02T00:45:05.126Z,33.72
2023-04-02T00:45:38.943Z,22.42
2023-04-02T00:46:16.301Z,24.48
2023-04-02T00:46:52.834Z,23.17
2023-04-02T00:47:27.861Z,30.45
2023-04-02T00:48:13.755Z,32.25
2023-04-02T00:48:55.572Z,19.52
2023-04-02T00:49:37.024Z,66.63
2023-04-02T00:50:27.626Z,28.02
2023-04-02T00:51:37.468Z,28.45
2023-04-02T00:52:15.958Z,22.05
2023-04-02T00:52:53.810Z,17.25
2023-04-02T00:53:29.323Z,26.98
2023-04-02T00:54:06.970Z,23.17
2023-04-02T00:54:43.727Z,17.15
2023-04-02T00:55:20.072Z,22.30
2023-04-02T00:55:55.235Z,20.85
2023-04-02T00:56:32.484Z,17.83
2023-04-02T00:57:05.483Z,30.27
2023-04-02T00:57:45.304Z,25.25
2023-04-02T00:58:21.564Z,27.17
2023-04-02T00:58:56.431Z,17.13
2023-04-02T00:59:34.535Z,25.42
2023-04-02T01:00:21.575Z,27.38
2023-04-02T01:00:56.915Z,20.10
2023-04-02T01:01:36.766Z,22.73
2023-04-02T01:02:29.245Z,22.88
2023-04-02T01:03:29.165Z,26.30
2023-04-02T01:04:02.473Z,34.75
2023-04-02T01:04:38.471Z,45.65
2023-04-02T01:05:22.778Z,29.92
2023-04-02T01:06:03.019Z,35.15
2023-04-02T01:06:40.840Z,20.35
2023-04-02T01:07:13.450Z,26.30
2023-04-02T01:08:02.580Z,25.02
2023-04-02T01:08:50.200Z,25.80
2023-04-02T01:09:34.697Z,21.08
2023-04-02T01:10:25.288Z,40.97
2023-04-02T01:12:06.544Z,25.77
2023-04-02T01:12:53.970Z,20.25
2023-04-02T01:13:31.425Z,18.15
2023-04-02T01:14:14.002Z,36.85
2023-04-02T01:14:58.010Z,19.58
2023-04-02T01:15:37.580Z,23.15
2023-04-02T01:16:22.358Z,22.80
2023-04-02T01:17:01.445Z,18.00
2023-04-02T01:17:49.180Z,25.52
2023-04-02T01:18:40.645Z,27.75
2023-04-02T01:19:45.256Z,20.05
2023-04-02T01:20:54.964Z,19.33
2023-04-02T01:21:53.070Z,25.73
2023-04-02T01:22:35.364Z,20.77
2023-04-02T01:23:17.203Z,30.77
2023-04-02T01:24:05.427Z,22.83
2023-04-02T01:24:38.658Z,28.85
2023-04-02T01:25:17.980Z,22.10
2023-04-02T01:26:00.107Z,20.17
2023-04-02T01:26:47.018Z,26.92
2023-04-02T01:27:28.942Z,27.00
2023-04-02T01:28:10.009Z,23.77
2023-04-02T01:28:57.971Z,22.98
2023-04-02T01:29:36.116Z,18.42
2023-04-02T01:30:12.160Z,33.55
2023-04-02T01:30:46.222Z,18.92
2023-04-02T01:31:18.997Z,24.20
2023-04-02T01:31:55.820Z,46.55
2023-04-02T01:32:30.599Z,22.10
2023-04-02T01:33:04.293Z,40.22
2023-04-02T01:33:39.184Z,30.25
2023-04-02T01:34:14.531Z,20.90
2023-04-02T01:34:51.732Z,20.05
2023-04-02T01:35:26.204Z,17.17
2023-04-02T01:36:06.063Z,24.02
2023-04-02T01:36:50.333Z,18.42
2023-04-02T01:37:34.997Z,32.55
2023-04-02T01:38:14.577Z,32.90
2023-04-02T01:38:53.358Z,19.80
2023-04-02T01:39:36.966Z,35.35
2023-04-02T01:40:33.886Z,26.95
2023-04-02T01:41:14.039Z,26.42
2023-04-02T01:41:56.472Z,21.25
2023-04-02T01:42:36.391Z,23.23
2023-04-02T01:43:22.545Z,24.67
2023-04-02T01:44:03.267Z,24.30
2023-04-02T01:44:43.345Z,22.88
2023-04-02T01:45:19.732Z,21.05
2023-04-02T01:45:52.762Z,27.10
2023-04-02T01:46:30.072Z,24.52
2023-04-02T01:47:04.170Z,25.10
2023-04-02T01:47:40.864Z,30.80
2023-04-02T01:48:17.118Z,34.67
2023-04-02T01:48:49.746Z,27.50
2023-04-02T01:49:25.565Z,33.20
2023-04-02T01:50:01.295Z,29.65
2023-04-02T01:50:37.497Z,27.25
2023-04-02T01:51:30.044Z,29.55
2023-04-02T01:52:02.432Z,42.85
2023-04-02T01:52:41.308Z,33.85
2023-04-02T01:53:19.499Z,32.53
2023-04-02T01:53:51.990Z,43.45
2023-04-02T01:54:26.081Z,31.83
2023-04-02T01:55:00.934Z,36.33
2023-04-02T01:55:40.312Z,33.03
2023-04-02T01:56:16.161Z,46.25
2023-04-02T01:56:48.982Z,34.72
2023-04-02T01:57:21.470Z,36.97
2023-04-02T01:57:57.811Z,56.33
2023-04-02T01:58:32.110Z,45.42
2023-04-02T01:59:11.497Z,41.05
2023-04-02T01:59:49.058Z,34.95
2023-04-02T02:00:22.707Z,31.48
2023-04-02T02:01:02.982Z,38.22
2023-04-02T02:01:45.869Z,24.35
2023-04-02T02:02:22.100Z,36.72
2023-04-02T02:02:55.024Z,26.00
2023-04-02T02:03:30.104Z,21.33
2023-04-02T02:04:02.888Z,28.92
2023-04-02T02:04:35.658Z,27.83
2023-04-02T02:05:14.164Z,33.72
2023-04-02T02:06:23.594Z,43.17
2023-04-02T02:06:58.794Z,21.85
2023-04-02T02:07:33.972Z,27.98
2023-04-02T02:08:13.021Z,42.75
2023-04-02T02:08:52.341Z,28.05
2023-04-02T02:09:28.075Z,24.35
2023-04-02T02:10:00.494Z,36.72
2023-04-02T02:10:38.149Z,26.73
2023-04-02T02:11:16.511Z,28.48
2023-04-02T02:11:49.584Z,26.15
2023-04-02T02:12:25.217Z,24.20
2023-04-02T02:13:00.478Z,23.10
2023-04-02T02:13:32.740Z,23.58
2023-04-02T02:14:16.299Z,27.65
2023-04-02T02:14:49.887Z,25.67
2023-04-02T02:15:24.087Z,23.95
2023-04-02T02:16:01.110Z,20.90
2023-04-02T02:16:41.997Z,24.65
2023-04-02T02:17:16.833Z,23.10
2023-04-02T02:17:53.173Z,49.50
2023-04-02T02:18:27.723Z,23.10
2023-04-02T02:19:03.328Z,34.67
2023-04-02T02:19:41.442Z,22.40
2023-04-02T02:20:14.827Z,35.63
2023-04-02T02:20:47.730Z,45.70
2023-04-02T02:21:29.510Z,37.58
2023-04-02T02:22:12.587Z,28.67
2023-04-02T02:22:46.881Z,24.10
2023-04-02T02:23:20.150Z,27.60
2023-04-02T02:23:55.569Z,22.92
2023-04-02T02:24:31.858Z,23.10
2023-04-02T02:25:10.952Z,28.35
2023-04-02T02:25:46.813Z,24.63
2023-04-02T02:26:19.778Z,32.70
2023-04-02T02:27:04.489Z,28.20
2023-04-02T02:27:58.778Z,24.35
2023-04-02T02:28:33.763Z,27.90
2023-04-02T02:29:11.738Z,29.60
2023-04-02T02:29:49.906Z,21.15
2023-04-02T02:30:27.326Z,26.52
2023-04-02T02:31:07.553Z,25.63
2023-04-02T02:31:42.173Z,24.08
2023-04-02T02:32:16.356Z,24.35
2023-04-02T02:32:56.090Z,27.10
2023-04-02T02:33:34.374Z,27.02
2023-04-02T02:34:50.000Z,34.05
2023-04-02T02:35:29.805Z,29.10
2023-04-02T02:36:06.550Z,32.25
2023-04-02T02:36:49.314Z,23.47
2023-04-02T02:37:27.963Z,33.80
2023-04-02T02:38:21.328Z,24.88
2023-04-02T02:39:01.152Z,26.13
2023-04-02T02:39:56.980Z,24.90
2023-04-02T02:40:36.930Z,34.55
2023-04-02T02:41:18.692Z,33.17
2023-04-02T02:41:56.085Z,45.08
2023-04-02T02:42:37.046Z,52.10
2023-04-02T02:43:13.628Z,22.23
2023-04-02T02:43:51.702Z,23.23
2023-04-02T02:44:31.756Z,23.10
2023-04-02T02:45:11.538Z,29.63
2023-04-02T02:45:47.432Z,21.58
2023-04-02T02:46:22.540Z,31.92
2023-04-02T02:47:01.777Z,23.05
2023-04-02T02:47:36.627Z,22.17
2023-04-02T02:48:15.606Z,32.53
2023-04-02T02:48:52.153Z,23.02
2023-04-02T02:49:29.596Z,24.20
2023-04-02T02:50:06.802Z,38.08
2023-04-02T02:50:42.787Z,36.85
2023-04-02T02:51:25.492Z,22.95
2023-04-02T02:52:01.858Z,29.45
2023-04-02T02:52:49.850Z,25.80
2023-04-02T02:53:23.879Z,32.30
2023-04-02T02:54:05.152Z,32.58
2023-04-02T02:54:44.503Z,27.08
2023-04-02T02:55:19.801Z,34.80
2023-04-02T02:56:03.254Z,29.08
2023-04-02T02:56:49.139Z,19.98
2023-04-02T02:57:29.022Z,25.98
2023-04-02T02:58:07.241Z,43.70
2023-04-02T02:58:47.059Z,33.50
2023-04-02T02:59:33.520Z,21.42
2023-04-02T03:00:43.815Z,19.65
2023-04-02T03:01:18.955Z,22.30
2023-04-02T03:01:52.895Z,22.48
2023-04-02T03:02:27.004Z,20.85
2023-04-02T03:03:02.698Z,24.15
2023-04-02T03:03:37.057Z,28.15
2023-04-02T03:04:11.191Z,31.08
2023-04-02T03:04:50.930Z,42.72
2023-04-02T03:05:26.665Z,41.47
2023-04-02T03:06:06.218Z,30.30
2023-04-02T03:06:42.549Z,23.15
2023-04-02T03:07:16.383Z,23.90
2023-04-02T03:07:52.384Z,22.67
2023-04-02T03:08:33.066Z,23.42
2023-04-02T03:09:15.129Z,44.08
2023-04-02T03:09:55.072Z,29.90
2023-04-02T03:10:38.029Z,20.13
2023-04-02T03:11:14.591Z,53.58
2023-04-02T03:11:52.679Z,20.27
2023-04-02T03:12:42.358Z,27.17
2023-04-02T03:13:22.480Z,19.25
2023-04-02T03:14:02.959Z,37.15
2023-04-02T03:14:45.595Z,27.67
2023-04-02T03:15:23.612Z,33.20
2023-04-02T03:16:02.921Z,32.45
2023-04-02T03:16:43.153Z,30.00
2023-04-02T03:17:57.161Z,19.63
2023-04-02T03:18:41.965Z,21.13
2023-04-02T03:19:26.328Z,32.15
2023-04-02T03:20:06.719Z,30.50
2023-04-02T03:20:45.556Z,25.80
2023-04-02T03:21:28.724Z,31.08
2023-04-02T03:22:08.871Z,32.15
2023-04-02T03:22:51.464Z,27.90
2023-04-02T03:23:32.566Z,31.02
2023-04-02T03:24:12.827Z,32.85
2023-04-02T03:25:33.055Z,32.75
2023-04-02T03:26:12.323Z,39.20
2023-04-02T03:26:52.073Z,23.70
2023-04-02T03:27:28.642Z,30.58
2023-04-02T03:28:05.069Z,42.40
2023-04-02T03:28:44.391Z,43.85
2023-04-02T03:29:19.484Z,20.52
2023-04-02T03:30:06.793Z,29.20
2023-04-02T03:30:46.517Z,26.00
2023-04-02T03:31:30.085Z,25.25
2023-04-02T03:32:07.918Z,35.33
2023-04-02T03:32:44.359Z,21.02
2023-04-02T03:33:26.622Z,24.77
2023-04-02T03:34:04.689Z,30.75
2023-04-02T03:34:43.657Z,35.78
2023-04-02T03:35:25.712Z,36.53
2023-04-02T03:36:03.372Z,30.98
2023-04-02T03:36:46.799Z,30.90
2023-04-02T03:37:24.142Z,33.42
2023-04-02T03:38:01.199Z,69.53
2023-04-02T03:38:40.212Z,36.90
2023-04-02T03:39:18.709Z,35.60
2023-04-02T03:39:59.136Z,30.38
2023-04-02T03:40:40.976Z,24.67
2023-04-02T03:41:17.482Z,35.53
2023-04-02T03:41:53.680Z,27.13
2023-04-02T03:42:33.700Z,22.83
2023-04-02T03:43:17.136Z,33.45
2023-04-02T03:43:53.953Z,30.15
2023-04-02T03:44:34.450Z,21.67
2023-04-02T03:45:15.820Z,29.88
2023-04-02T03:45:52.374Z,28.42
2023-04-02T03:46:33.843Z,31.25
2023-04-02T03:47:15.378Z,28.20
2023-04-02T03:47:54.623Z,26.08
2023-04-02T03:48:35.128Z,23.83
2023-04-02T03:49:12.146Z,29.00
2023-04-02T03:49:48.278Z,26.13
2023-04-02T03:50:29.440Z,25.60
2023-04-02T03:51:07.874Z,42.88
2023-04-02T03:51:56.344Z,38.40
2023-04-02T03:52:32.586Z,32.08
2023-04-02T03:53:06.688Z,30.73
2023-04-02T03:53:39.465Z,34.08
2023-04-02T03:54:18.684Z,30.77
2023-04-02T03:54:53.867Z,29.45
2023-04-02T03:55:29.165Z,33.25
2023-04-02T03:56:05.217Z,32.28
2023-04-02T03:56:40.158Z,29.20
2023-04-02T03:57:30.335Z,27.40
2023-04-02T03:58:09.812Z,26.25
2023-04-02T03:58:52.899Z,28.08
2023-04-02T03:59:35.056Z,30.98
2023-04-02T04:00:16.627Z,35.05
2023-04-02T04:01:02.073Z,25.85
2023-04-02T04:01:42.712Z,30.77
2023-04-02T04:02:37.787Z,35.85
2023-04-02T04:03:14.683Z,31.35
2023-04-02T04:03:52.424Z,30.30
2023-04-02T04:04:31.910Z,36.25
2023-04-02T04:05:07.100Z,41.97
2023-04-02T04:05:47.313Z,35.15
2023-04-02T04:06:27.855Z,36.67
2023-04-02T04:07:02.024Z,30.38
2023-04-02T04:07:39.128Z,25.23
2023-04-02T04:08:19.442Z,30.10
2023-04-02T04:08:55.003Z,34.90
2023-04-02T04:09:34.637Z,36.22
2023-04-02T04:10:08.916Z,37.60
2023-04-02T04:10:42.500Z,33.05
2023-04-02T04:11:21.948Z,30.35
2023-04-02T04:12:02.881Z,29.20
2023-04-02T04:12:39.790Z,30.88
2023-04-02T04:13:20.793Z,30.48
2023-04-02T04:13:57.580Z,32.25
2023-04-02T04:14:32.674Z,44.85
2023-04-02T04:15:19.822Z,41.13
2023-04-02T04:15:58.443Z,24.95
2023-04-02T04:16:34.794Z,47.13
2023-04-02T04:17:23.988Z,48.33
2023-04-02T04:18:04.551Z,55.92
2023-04-02T04:18:49.261Z,42.25
2023-04-02T04:19:30.146Z,58.40
2023-04-02T04:20:15.033Z,58.20
2023-04-02T04:20:56.955Z,39.20
2023-04-02T04:21:37.598Z,42.67
2023-04-02T04:22:30.643Z,50.22
2023-04-02T04:23:14.502Z,51.95
2023-04-02T04:23:50.812Z,36.05
2023-04-02T04:24:27.352Z,28.33
2023-04-02T04:25:09.634Z,46.05
2023-04-02T04:25:42.052Z,29.42
2023-04-02T04:26:24.881Z,34.92
2023-04-02T04:27:12.120Z,29.80
2023-04-02T04:27:56.920Z,47.35
2023-04-02T04:29:22.538Z,42.33
2023-04-02T04:30:04.151Z,30.67
2023-04-02T04:30:52.831Z,29.63
2023-04-02T04:31:34.889Z,45.72
2023-04-02T04:32:27.522Z,28.23
2023-04-02T04:33:11.118Z,39.75
2023-04-02T04:33:46.711Z,35.08
2023-04-02T04:34:30.305Z,36.13
2023-04-02T04:35:08.793Z,33.33
2023-04-02T04:35:46.782Z,31.90
2023-04-02T04:36:29.440Z,40.20
2023-04-02T04:37:21.735Z,32.92
2023-04-02T04:37:59.507Z,26.77
2023-04-02T04:38:39.625Z,37.00
2023-04-02T04:39:21.864Z,35.28
2023-04-02T04:39:59.163Z,29.63
2023-04-02T04:40:37.543Z,57.88
2023-04-02T04:41:14.560Z,42.38
2023-04-02T04:41:48.636Z,48.83
2023-04-02T04:42:27.523Z,29.67
2023-04-02T04:43:05.081Z,38.80
2023-04-02T04:43:48.338Z,39.58
2023-04-02T04:44:23.913Z,40.20
2023-04-02T04:45:04.191Z,27.33
2023-04-02T04:45:50.804Z,32.90
2023-04-02T04:46:31.208Z,28.40
2023-04-02T04:47:10.946Z,35.33
2023-04-02T04:47:50.751Z,37.42
2023-04-02T04:48:27.662Z,30.52
2023-04-02T04:49:11.355Z,38.65
2023-04-02T04:49:47.730Z,33.58
2023-04-02T04:50:29.795Z,35.83
2023-04-02T04:51:06.804Z,46.53
2023-04-02T04:51:45.428Z,33.13
2023-04-02T04:52:26.517Z,36.90
2023-04-02T04:53:06.006Z,33.17
2023-04-02T04:53:50.170Z,32.22
2023-04-02T04:54:27.590Z,55.13
2023-04-02T04:55:01.923Z,42.45
2023-04-02T04:55:42.468Z,34.92
2023-04-02T04:56:20.027Z,34.78
2023-04-02T04:57:01.371Z,36.17
2023-04-02T04:57:39.229Z,35.60
2023-04-02T04:58:23.188Z,33.28
2023-04-02T04:59:05.179Z,35.60
2023-04-02T04:59:45.095Z,29.52
2023-04-02T05:01:06.066Z,41.75
2023-04-02T05:01:46.541Z,61.65
2023-04-02T05:02:24.355Z,52.72
2023-04-02T05:03:09.373Z,69.60
2023-04-02T05:03:46.653Z,25.77
2023-04-02T05:04:26.315Z,34.92
2023-04-02T05:05:01.002Z,35.28
2023-04-02T05:05:39.686Z,32.63
2023-04-02T05:06:35.675Z,46.15
2023-04-02T05:07:14.310Z,78.93
2023-04-02T05:07:57.072Z,28.95
2023-04-02T05:08:34.860Z,46.80
2023-04-02T05:09:18.584Z,40.90
2023-04-02T05:09:56.739Z,36.17
2023-04-02T05:10:38.093Z,31.23
2023-04-02T05:11:17.734Z,42.17
2023-04-02T05:11:59.728Z,59.22
2023-04-02T05:12:35.654Z,54.80
2023-04-02T05:13:20.775Z,47.97
2023-04-02T05:13:57.997Z,59.33
2023-04-02T05:14:39.622Z,43.70
2023-04-02T05:15:17.654Z,32.05
2023-04-02T05:16:02.254Z,50.05
2023-04-02T05:16:44.160Z,42.60
2023-04-02T05:17:22.811Z,33.20
2023-04-02T05:18:12.506Z,35.80
2023-04-02T05:19:29.651Z,43.40
2023-04-02T05:20:10.280Z,41.10
2023-04-02T05:20:50.145Z,56.45
2023-04-02T05:21:26.604Z,32.50
2023-04-02T05:22:07.571Z,30.25
2023-04-02T05:22:47.659Z,28.52
2023-04-02T05:23:25.743Z,59.05
2023-04-02T05:24:10.717Z,41.47
2023-04-02T05:24:51.494Z,30.30
2023-04-02T05:25:26.105Z,40.80
2023-04-02T05:26:09.505Z,58.22
2023-04-02T05:26:46.483Z,26.27
2023-04-02T05:27:31.952Z,38.08
2023-04-02T05:28:13.958Z,35.40
2023-04-02T05:28:53.101Z,27.70
2023-04-02T05:29:32.149Z,35.63
2023-04-02T05:30:15.872Z,53.30
2023-04-02T05:30:53.041Z,40.95
2023-04-02T05:31:39.805Z,29.60
2023-04-02T05:32:19.760Z,31.05
2023-04-02T05:32:58.980Z,27.27
2023-04-02T05:33:37.997Z,61.25
2023-04-02T05:34:14.798Z,40.83
2023-04-02T05:34:53.110Z,28.48
2023-04-02T05:35:33.181Z,46.75
2023-04-02T05:36:08.312Z,31.92
2023-04-02T05:36:50.712Z,46.45
2023-04-02T05:37:26.888Z,28.17
2023-04-02T05:37:59.536Z,30.35
2023-04-02T05:38:37.256Z,18.13
2023-04-02T05:39:11.316Z,34.83
2023-04-02T05:39:56.217Z,34.40
2023-04-02T05:40:39.312Z,18.75
2023-04-02T05:41:22.660Z,27.83
2023-04-02T05:42:04.376Z,31.67
2023-04-02T05:42:50.639Z,32.22
2023-04-02T05:43:26.294Z,33.28
2023-04-02T05:44:09.010Z,22.98
2023-04-02T05:44:50.880Z,39.25
2023-04-02T05:45:32.132Z,47.22
2023-04-02T05:46:18.705Z,29.90
2023-04-02T05:46:59.097Z,24.60
2023-04-02T05:47:41.304Z,24.20
2023-04-02T05:48:21.957Z,27.65
2023-04-02T05:48:57.416Z,55.85
2023-04-02T05:49:35.733Z,22.33
2023-04-02T05:50:22.645Z,39.55
2023-04-02T05:50:59.031Z,19.95
2023-04-02T05:51:42.841Z,37.90
2023-04-02T05:52:20.589Z,53.47
2023-04-02T05:52:57.351Z,47.90
2023-04-02T05:53:38.606Z,61.88
2023-04-02T05:54:23.433Z,48.63
2023-04-02T05:55:06.540Z,68.07
2023-04-02T05:55:48.758Z,29.55
2023-04-02T05:56:23.883Z,33.75
2023-04-02T05:57:02.956Z,39.92
2023-04-02T05:57:44.834Z,38.83
2023-04-02T05:58:36.020Z,39.60
2023-04-02T05:59:24.480Z,81.43
2023-04-02T06:00:00.486Z,51.67
2023-04-02T06:00:50.614Z,48.22
2023-04-02T06:01:40.292Z,66.10
2023-04-02T06:02:23.325Z,52.45
2023-04-02T06:03:07.581Z,52.88
2023-04-02T06:03:49.748Z,52.47
2023-04-02T06:04:28.655Z,51.03
2023-04-02T06:05:08.300Z,76.15
2023-04-02T06:05:45.803Z,48.17
2023-04-02T06:06:26.101Z,43.75
2023-04-02T06:07:03.888Z,54.72
2023-04-02T06:07:45.306Z,57.45
2023-04-02T06:08:24.553Z,43.92
2023-04-02T06:09:05.783Z,36.75
2023-04-02T06:09:42.771Z,69.88
2023-04-02T06:10:24.765Z,83.63
2023-04-02T06:11:02.756Z,42.00
2023-04-02T06:11:43.388Z,54.45
2023-04-02T06:12:27.594Z,43.80
2023-04-02T06:13:06.108Z,61.10
2023-04-02T06:13:50.322Z,68.97
2023-04-02T06:14:22.705Z,33.10
2023-04-02T06:14:57.912Z,53.00
2023-04-02T06:15:35.798Z,43.63
2023-04-02T06:16:15.030Z,47.47
2023-04-02T06:16:50.191Z,45.28
2023-04-02T06:17:24.048Z,54.72
2023-04-02T06:18:08.175Z,47.95
2023-04-02T06:18:44.488Z,38.92
2023-04-02T06:19:21.535Z,38.92
2023-04-02T06:19:59.171Z,52.25
2023-04-02T06:20:31.768Z,49.25
2023-04-02T06:21:05.645Z,69.93
2023-04-02T06:21:46.903Z,55.47
2023-04-02T06:22:24.759Z,60.72
2023-04-02T06:23:09.357Z,75.95
2023-04-02T06:23:46.880Z,81.07
2023-04-02T06:24:27.261Z,60.80
2023-04-02T06:25:06.319Z,79.55
2023-04-02T06:25:47.978Z,56.05
2023-04-02T06:26:27.263Z,93.78
2023-04-02T06:27:06.623Z,32.35
2023-04-02T06:27:40.389Z,50.03
2023-04-02T06:28:19.992Z,33.97
2023-04-02T06:29:04.323Z,43.55
2023-04-02T06:29:43.522Z,29.27
2023-04-02T06:30:25.127Z,69.57
2023-04-02T06:31:03.513Z,70.95
2023-04-02T06:31:49.337Z,65.35
2023-04-02T06:32:25.787Z,55.88
2023-04-02T06:33:03.853Z,43.20
2023-04-02T06:33:37.508Z,39.85
2023-04-02T06:34:15.801Z,32.75
2023-04-02T06:34:57.140Z,30.75
2023-04-02T06:35:29.524Z,47.03
2023-04-02T06:36:09.752Z,29.17
2023-04-02T06:36:47.014Z,32.55
2023-04-02T06:37:26.157Z,44.63
2023-04-02T06:38:10.017Z,38.08
2023-04-02T06:38:44.360Z,57.72
2023-04-02T06:39:20.458Z,31.20
2023-04-02T06:39:56.186Z,37.53
2023-04-02T06:40:41.220Z,45.97
2023-04-02T06:41:28.220Z,61.75
2023-04-02T06:42:34.275Z,44.25
2023-04-02T06:43:23.599Z,40.53
2023-04-02T06:44:15.264Z,50.47
2023-04-02T06:45:02.081Z,43.20
2023-04-02T06:45:55.442Z,41.20
2023-04-02T06:46:43.077Z,44.40
2023-04-02T06:47:27.306Z,41.55
2023-04-02T06:48:04.208Z,44.28
2023-04-02T06:48:53.496Z,21.35
2023-04-02T06:49:35.601Z,61.10
2023-04-02T06:50:17.906Z,37.72
2023-04-02T06:50:55.633Z,33.13
2023-04-02T06:51:30.636Z,45.05
2023-04-02T06:52:07.984Z,57.13
2023-04-02T06:52:46.580Z,45.38
2023-04-02T06:53:26.863Z,26.25
2023-04-02T06:54:00.838Z,25.63
2023-04-02T06:54:33.092Z,27.88
2023-04-02T06:55:31.890Z,59.83
2023-04-02T06:56:07.427Z,43.25
2023-04-02T06:56:46.341Z,26.92
2023-04-02T06:57:23.081Z,58.63
2023-04-02T06:57:58.975Z,51.90
2023-04-02T06:58:32.943Z,35.97
2023-04-02T06:59:07.669Z,38.25
2023-04-02T06:59:43.276Z,30.83
2023-04-02T07:00:26.793Z,54.60
2023-04-02T07:00:59.340Z,40.70
2023-04-02T07:01:54.366Z,48.05
2023-04-02T07:03:10.597Z,34.88
2023-04-02T07:03:43.205Z,41.47
2023-04-02T07:04:27.821Z,47.03
2023-04-02T07:05:04.143Z,73.75
2023-04-02T07:05:39.852Z,49.35
2023-04-02T07:06:18.392Z,58.88
2023-04-02T07:06:52.315Z,41.38
2023-04-02T07:07:28.360Z,78.07
2023-04-02T07:08:01.618Z,84.00
2023-04-02T07:08:36.424Z,37.15
2023-04-02T07:09:10.188Z,55.70
2023-04-02T07:09:48.190Z,39.83
2023-04-02T07:10:20.608Z,63.10
2023-04-02T07:10:53.740Z,32.42
2023-04-02T07:11:28.496Z,40.10
2023-04-02T07:12:11.888Z,45.92
2023-04-02T07:12:46.902Z,63.25
2023-04-02T07:13:20.906Z,33.50
2023-04-02T07:13:53.226Z,43.13
2023-04-02T07:14:28.555Z,33.28
2023-04-02T07:15:00.815Z,38.80
2023-04-02T07:15:33.733Z,29.58
2023-04-02T07:16:14.727Z,29.60
2023-04-02T07:16:47.088Z,51.08
2023-04-02T07:17:23.254Z,28.85
2023-04-02T07:17:57.732Z,38.33
2023-04-02T07:18:37.246Z,71.40
2023-04-02T07:19:18.211Z,48.97
2023-04-02T07:19:53.494Z,56.35
2023-04-02T07:20:30.234Z,38.13
2023-04-02T07:21:05.700Z,44.35
2023-04-02T07:21:40.708Z,40.92
2023-04-02T07:22:13.040Z,48.97
2023-04-02T07:22:50.521Z,59.15
2023-04-02T07:23:22.756Z,67.85
2023-04-02T07:23:55.701Z,49.17
2023-04-02T07:24:30.580Z,31.73
2023-04-02T07:25:02.848Z,52.63
2023-04-02T07:25:37.825Z,72.78
2023-04-02T07:26:14.454Z,53.92
2023-04-02T07:26:49.711Z,46.95
2023-04-02T07:27:21.972Z,50.22
2023-04-02T07:27:57.620Z,40.92
2023-04-02T07:28:30.304Z,45.42
2023-04-02T07:29:02.480Z,27.17
2023-04-02T07:29:42.627Z,27.60
2023-04-02T07:30:15.087Z,36.80
2023-04-02T07:30:50.518Z,37.03
2023-04-02T07:31:24.908Z,59.50
2023-04-02T07:31:59.700Z,46.88
2023-04-02T07:32:31.936Z,76.65
2023-04-02T07:33:04.724Z,42.60
2023-04-02T07:33:42.225Z,95.10
2023-04-02T07:34:14.499Z,34.70
2023-04-02T07:34:47.330Z,60.17
2023-04-02T07:35:22.920Z,70.43
2023-04-02T07:35:57.555Z,64.90
2023-04-02T07:36:33.268Z,37.03
2023-04-02T07:37:06.117Z,34.63
2023-04-02T07:37:38.943Z,32.15
2023-04-02T07:38:14.363Z,47.35
2023-04-02T07:38:46.830Z,34.53
2023-04-02T07:39:21.785Z,68.65
2023-04-02T07:39:54.014Z,30.05
2023-04-02T07:40:26.260Z,29.67
2023-04-02T07:41:01.124Z,26.77
2023-04-02T07:41:33.308Z,24.75
2023-04-02T07:42:08.195Z,36.75
2023-04-02T07:42:40.535Z,29.88
2023-04-02T07:43:12.888Z,46.40
2023-04-02T07:43:48.254Z,31.05
2023-04-02T07:44:20.480Z,27.90
2023-04-02T07:44:55.289Z,48.25
2023-04-02T07:45:27.719Z,39.20
2023-04-02T07:46:00.240Z,33.60
2023-04-02T07:46:35.069Z,34.30
2023-04-02T07:47:08.742Z,65.22
2023-04-02T07:47:41.116Z,48.33
2023-04-02T07:48:16.899Z,48.42
2023-04-02T07:48:51.670Z,85.53
2023-04-02T07:49:23.962Z,50.25
2023-04-02T07:49:58.721Z,49.28
2023-04-02T07:50:30.899Z,38.90
2023-04-02T07:51:03.658Z,59.33
2023-04-02T07:51:38.414Z,50.15
2023-04-02T07:52:12.181Z,74.25
2023-04-02T07:52:47.065Z,85.75
2023-04-02T07:53:30.139Z,59.03
2023-04-02T07:54:05.159Z,50.92
2023-04-02T07:54:38.385Z,50.67
2023-04-02T07:55:12.649Z,64.97
2023-04-02T07:55:47.523Z,61.95
2023-04-02T07:56:20.445Z,82.68
2023-04-02T07:56:55.452Z,49.78
2023-04-02T07:57:27.722Z,47.08
2023-04-02T07:58:00.290Z,56.75
2023-04-02T07:58:36.692Z,84.97
2023-04-02T07:59:09.230Z,77.68
2023-04-02T07:59:44.099Z,76.65
2023-04-02T08:00:17.511Z,77.70
2023-04-02T08:00:49.863Z,91.07
2023-04-02T08:01:26.608Z,67.88
2023-04-02T08:01:58.949Z,62.17
2023-04-02T08:02:33.955Z,84.82
2023-04-02T08:03:06.353Z,80.70
2023-04-02T08:03:38.867Z,86.88
2023-04-02T08:04:21.698Z,66.13
2023-04-02T08:04:53.988Z,74.05
2023-04-02T08:05:26.621Z,75.90
2023-04-02T08:06:02.003Z,62.88
2023-04-02T08:06:34.288Z,56.78
2023-04-02T08:07:09.077Z,46.53
2023-04-02T08:07:41.790Z,61.67
2023-04-02T08:08:14.070Z,67.32
2023-04-02T08:08:49.335Z,79.45
2023-04-02T08:09:21.568Z,71.63
2023-04-02T08:09:53.789Z,95.53
2023-04-02T08:10:28.603Z,62.60
2023-04-02T08:11:01.115Z,105.97
2023-04-02T08:11:33.596Z,56.78
2023-04-02T08:12:12.676Z,84.68
2023-04-02T08:12:45.108Z,102.55
2023-04-02T08:13:18.676Z,57.05
2023-04-02T08:13:53.576Z,46.90
2023-04-02T08:14:25.774Z,82.75
2023-04-02T08:15:00.633Z,66.03
2023-04-02T08:15:33.147Z,75.97
2023-04-02T08:16:07.243Z,87.68
2023-04-02T08:16:53.837Z,74.15
2023-04-02T08:17:31.430Z,86.05
2023-04-02T08:18:03.948Z,87.00
2023-04-02T08:18:39.372Z,44.55
2023-04-02T08:19:11.812Z,88.13
2023-04-02T08:19:54.664Z,77.45
2023-04-02T08:20:30.051Z,65.03
2023-04-02T08:21:02.913Z,51.45
2023-04-02T08:21:35.100Z,48.08
2023-04-02T08:22:09.962Z,69.65
2023-04-02T08:22:42.219Z,67.57
2023-04-02T08:23:17.232Z,80.43
2023-04-02T08:23:52.010Z,66.53
2023-04-02T08:24:24.273Z,59.40
2023-04-02T08:24:56.932Z,99.40
2023-04-02T08:25:31.917Z,78.07
2023-04-02T08:26:04.891Z,94.93